sensor_id;sensor_type;location;lat;lon;timestamp;pressure;altitude;pressure_sealevel;temperature;humidity
36664;BME280;53333;51.976;20.144;2022-07-29T00:02:23;100657.88;;;16.71;56.12
36664;BME280;53333;51.976;20.144;2022-07-29T00:04:57;100667.13;;;16.67;56.25
36664;BME280;53333;51.976;20.144;2022-07-29T00:07:32;100662.94;;;16.63;56.33
36664;BME280;53333;51.976;20.144;2022-07-29T00:10:08;100653.28;;;16.59;56.36
36664;BME280;53333;51.976;20.144;2022-07-29T00:12:42;100661.47;;;16.57;56.05
36664;BME280;53333;51.976;20.144;2022-07-29T00:15:17;100661.47;;;16.57;55.90
36664;BME280;53333;51.976;20.144;2022-07-29T00:17:52;100660.88;;;16.66;55.24
36664;BME280;53333;51.976;20.144;2022-07-29T00:20:26;100670.44;;;16.58;55.96
36664;BME280;53333;51.976;20.144;2022-07-29T00:22:59;100663.69;;;16.65;55.18
36664;BME280;53333;51.976;20.144;2022-07-29T00:25:33;100668.91;;;16.53;55.73
36664;BME280;53333;51.976;20.144;2022-07-29T00:28:06;100668.41;;;16.61;55.25
36664;BME280;53333;51.976;20.144;2022-07-29T00:30:39;100665.88;;;16.45;56.05
36664;BME280;53333;51.976;20.144;2022-07-29T00:33:16;100661.72;;;16.40;56.45
36664;BME280;53333;51.976;20.144;2022-07-29T00:35:50;100670.00;;;16.37;56.70
36664;BME280;53333;51.976;20.144;2022-07-29T00:38:24;100671.19;;;16.32;56.96
36664;BME280;53333;51.976;20.144;2022-07-29T00:40:57;100660.59;;;16.29;57.03
36664;BME280;53333;51.976;20.144;2022-07-29T00:43:31;100669.91;;;16.38;56.08
36664;BME280;53333;51.976;20.144;2022-07-29T00:46:05;100674.19;;;16.28;56.88
36664;BME280;53333;51.976;20.144;2022-07-29T00:48:40;100672.53;;;16.25;57.20
36664;BME280;53333;51.976;20.144;2022-07-29T00:51:14;100672.63;;;16.24;57.53
36664;BME280;53333;51.976;20.144;2022-07-29T00:53:48;100679.00;;;16.23;57.53
36664;BME280;53333;51.976;20.144;2022-07-29T00:56:23;100673.72;;;16.21;57.63
36664;BME280;53333;51.976;20.144;2022-07-29T00:58:57;100678.13;;;16.22;57.55
36664;BME280;53333;51.976;20.144;2022-07-29T01:01:31;100689.78;;;16.23;58.10
36664;BME280;53333;51.976;20.144;2022-07-29T01:04:06;100679.38;;;16.31;57.10
36664;BME280;53333;51.976;20.144;2022-07-29T01:06:40;100682.75;;;16.20;57.49
36664;BME280;53333;51.976;20.144;2022-07-29T01:09:15;100683.81;;;16.17;57.51
36664;BME280;53333;51.976;20.144;2022-07-29T01:12:11;100678.72;;;16.13;57.47
36664;BME280;53333;51.976;20.144;2022-07-29T01:14:46;100683.44;;;16.09;57.65
36664;BME280;53333;51.976;20.144;2022-07-29T01:17:26;100676.53;;;16.05;57.84
36664;BME280;53333;51.976;20.144;2022-07-29T01:20:05;100680.38;;;16.01;57.80
36664;BME280;53333;51.976;20.144;2022-07-29T01:23:01;100679.69;;;15.97;57.87
36664;BME280;53333;51.976;20.144;2022-07-29T01:26:05;100675.25;;;15.96;57.72
36664;BME280;53333;51.976;20.144;2022-07-29T01:29:05;100682.22;;;15.86;58.13
36664;BME280;53333;51.976;20.144;2022-07-29T01:31:44;100678.31;;;15.76;58.43
36664;BME280;53333;51.976;20.144;2022-07-29T01:34:35;100675.91;;;15.71;58.58
36664;BME280;53333;51.976;20.144;2022-07-29T01:37:18;100671.78;;;15.66;58.72
36664;BME280;53333;51.976;20.144;2022-07-29T01:39:55;100671.19;;;15.60;58.60
36664;BME280;53333;51.976;20.144;2022-07-29T01:42:34;100670.69;;;15.54;58.87
36664;BME280;53333;51.976;20.144;2022-07-29T01:45:15;100670.03;;;15.50;58.86
36664;BME280;53333;51.976;20.144;2022-07-29T01:47:56;100668.59;;;15.44;59.02
36664;BME280;53333;51.976;20.144;2022-07-29T01:50:34;100667.88;;;15.41;58.97
36664;BME280;53333;51.976;20.144;2022-07-29T01:53:09;100666.34;;;15.37;59.20
36664;BME280;53333;51.976;20.144;2022-07-29T01:55:46;100662.97;;;15.33;59.44
36664;BME280;53333;51.976;20.144;2022-07-29T01:58:21;100668.56;;;15.30;59.57
36664;BME280;53333;51.976;20.144;2022-07-29T02:00:58;100665.06;;;15.28;59.76
36664;BME280;53333;51.976;20.144;2022-07-29T02:03:34;100665.16;;;15.26;59.95
36664;BME280;53333;51.976;20.144;2022-07-29T02:06:10;100665.97;;;15.29;59.97
36664;BME280;53333;51.976;20.144;2022-07-29T02:08:45;100667.66;;;15.30;60.40
36664;BME280;53333;51.976;20.144;2022-07-29T02:11:20;100670.44;;;15.28;60.66
36664;BME280;53333;51.976;20.144;2022-07-29T02:13:56;100674.22;;;15.25;60.90
36664;BME280;53333;51.976;20.144;2022-07-29T02:16:33;100672.56;;;15.23;61.07
36664;BME280;53333;51.976;20.144;2022-07-29T02:19:09;100671.72;;;15.22;60.75
36664;BME280;53333;51.976;20.144;2022-07-29T02:21:44;100680.91;;;15.18;60.87
36664;BME280;53333;51.976;20.144;2022-07-29T02:24:19;100674.00;;;15.14;60.98
36664;BME280;53333;51.976;20.144;2022-07-29T02:26:55;100667.72;;;15.14;61.00
36664;BME280;53333;51.976;20.144;2022-07-29T02:29:30;100674.09;;;15.13;61.07
36664;BME280;53333;51.976;20.144;2022-07-29T02:32:08;100671.66;;;15.08;61.03
36664;BME280;53333;51.976;20.144;2022-07-29T02:34:44;100670.00;;;15.05;61.08
36664;BME280;53333;51.976;20.144;2022-07-29T02:37:22;100672.97;;;15.01;61.33
36664;BME280;53333;51.976;20.144;2022-07-29T02:39:58;100676.81;;;14.97;61.64
36664;BME280;53333;51.976;20.144;2022-07-29T02:42:33;100664.41;;;14.94;61.65
36664;BME280;53333;51.976;20.144;2022-07-29T02:45:11;100666.25;;;14.94;61.56
36664;BME280;53333;51.976;20.144;2022-07-29T02:47:47;100664.81;;;15.02;60.64
36664;BME280;53333;51.976;20.144;2022-07-29T02:50:27;100668.94;;;14.94;60.87
36664;BME280;53333;51.976;20.144;2022-07-29T02:53:13;100666.16;;;14.95;61.02
36664;BME280;53333;51.976;20.144;2022-07-29T02:55:52;100666.25;;;14.94;60.85
36664;BME280;53333;51.976;20.144;2022-07-29T02:58:32;100666.41;;;14.91;60.92
36664;BME280;53333;51.976;20.144;2022-07-29T03:01:10;100663.81;;;14.89;60.85
36664;BME280;53333;51.976;20.144;2022-07-29T03:03:54;100657.75;;;14.85;60.79
36664;BME280;53333;51.976;20.144;2022-07-29T03:06:28;100650.72;;;14.83;60.72
36664;BME280;53333;51.976;20.144;2022-07-29T03:09:10;100655.44;;;14.79;60.84
36664;BME280;53333;51.976;20.144;2022-07-29T03:11:45;100661.00;;;14.76;60.71
36664;BME280;53333;51.976;20.144;2022-07-29T03:14:21;100660.19;;;14.74;60.82
36664;BME280;53333;51.976;20.144;2022-07-29T03:16:56;100662.09;;;14.72;60.76
36664;BME280;53333;51.976;20.144;2022-07-29T03:19:32;100662.28;;;14.69;60.80
36664;BME280;53333;51.976;20.144;2022-07-29T03:22:06;100660.47;;;14.69;60.71
36664;BME280;53333;51.976;20.144;2022-07-29T03:24:40;100663.94;;;14.71;60.64
36664;BME280;53333;51.976;20.144;2022-07-29T03:27:13;100667.81;;;14.82;59.96
36664;BME280;53333;51.976;20.144;2022-07-29T03:29:47;100666.44;;;14.75;60.33
36664;BME280;53333;51.976;20.144;2022-07-29T03:32:21;100668.25;;;14.74;60.41
36664;BME280;53333;51.976;20.144;2022-07-29T03:34:57;100670.16;;;14.72;60.53
36664;BME280;53333;51.976;20.144;2022-07-29T03:37:31;100671.91;;;14.73;60.66
36664;BME280;53333;51.976;20.144;2022-07-29T03:40:08;100670.84;;;14.76;60.51
36664;BME280;53333;51.976;20.144;2022-07-29T03:42:44;100682.41;;;14.78;60.42
36664;BME280;53333;51.976;20.144;2022-07-29T03:45:21;100680.50;;;14.80;60.30
36664;BME280;53333;51.976;20.144;2022-07-29T03:47:59;100683.09;;;14.81;60.25
36664;BME280;53333;51.976;20.144;2022-07-29T03:50:35;100685.09;;;14.78;60.36
36664;BME280;53333;51.976;20.144;2022-07-29T03:53:09;100687.59;;;14.81;60.61
36664;BME280;53333;51.976;20.144;2022-07-29T03:55:45;100667.72;;;14.83;60.89
36664;BME280;53333;51.976;20.144;2022-07-29T03:58:20;100663.91;;;14.87;60.39
36664;BME280;53333;51.976;20.144;2022-07-29T04:00:55;100673.41;;;14.93;60.53
36664;BME280;53333;51.976;20.144;2022-07-29T04:03:29;100672.28;;;14.97;60.40
36664;BME280;53333;51.976;20.144;2022-07-29T04:06:06;100675.56;;;15.02;60.21
36664;BME280;53333;51.976;20.144;2022-07-29T04:08:39;100678.84;;;15.07;60.39
36664;BME280;53333;51.976;20.144;2022-07-29T04:11:16;100669.78;;;15.24;59.56
36664;BME280;53333;51.976;20.144;2022-07-29T04:13:50;100675.34;;;15.21;59.95
36664;BME280;53333;51.976;20.144;2022-07-29T04:16:23;100674.34;;;15.38;59.23
36664;BME280;53333;51.976;20.144;2022-07-29T04:18:57;100680.66;;;15.37;59.46
36664;BME280;53333;51.976;20.144;2022-07-29T04:21:37;100674.91;;;15.43;59.65
36664;BME280;53333;51.976;20.144;2022-07-29T04:24:10;100678.00;;;15.52;59.72
36664;BME280;53333;51.976;20.144;2022-07-29T04:26:45;100681.00;;;15.61;59.47
36664;BME280;53333;51.976;20.144;2022-07-29T04:29:19;100677.72;;;15.71;59.29
36664;BME280;53333;51.976;20.144;2022-07-29T04:31:53;100687.00;;;15.81;59.12
36664;BME280;53333;51.976;20.144;2022-07-29T04:34:26;100690.09;;;16.04;58.63
36664;BME280;53333;51.976;20.144;2022-07-29T04:37:01;100691.03;;;16.03;58.91
36664;BME280;53333;51.976;20.144;2022-07-29T04:39:35;100687.97;;;16.09;58.78
36664;BME280;53333;51.976;20.144;2022-07-29T04:42:12;100690.84;;;16.20;58.82
36664;BME280;53333;51.976;20.144;2022-07-29T04:44:48;100695.66;;;16.29;58.60
36664;BME280;53333;51.976;20.144;2022-07-29T04:47:22;100692.13;;;16.42;58.54
36664;BME280;53333;51.976;20.144;2022-07-29T04:49:56;100691.50;;;16.65;57.74
36664;BME280;53333;51.976;20.144;2022-07-29T04:52:31;100696.78;;;16.67;57.65
36664;BME280;53333;51.976;20.144;2022-07-29T04:55:05;100690.69;;;16.78;57.70
36664;BME280;53333;51.976;20.144;2022-07-29T04:57:39;100703.31;;;16.92;57.56
36664;BME280;53333;51.976;20.144;2022-07-29T05:00:13;100684.47;;;17.04;57.58
36664;BME280;53333;51.976;20.144;2022-07-29T05:02:47;100689.78;;;17.19;57.20
36664;BME280;53333;51.976;20.144;2022-07-29T05:05:22;100683.56;;;17.31;56.75
36664;BME280;53333;51.976;20.144;2022-07-29T05:08:06;100689.19;;;17.41;56.71
36664;BME280;53333;51.976;20.144;2022-07-29T05:10:40;100692.09;;;17.51;56.51
36664;BME280;53333;51.976;20.144;2022-07-29T05:13:16;100692.44;;;17.72;56.12
36664;BME280;53333;51.976;20.144;2022-07-29T05:15:50;100688.78;;;17.73;56.39
36664;BME280;53333;51.976;20.144;2022-07-29T05:18:24;100693.28;;;17.85;56.16
36664;BME280;53333;51.976;20.144;2022-07-29T05:20:57;100692.44;;;18.10;55.80
36664;BME280;53333;51.976;20.144;2022-07-29T05:23:32;100688.75;;;18.11;55.78
36664;BME280;53333;51.976;20.144;2022-07-29T05:26:06;100679.00;;;18.22;55.68
36664;BME280;53333;51.976;20.144;2022-07-29T05:28:39;100681.78;;;18.33;55.43
36664;BME280;53333;51.976;20.144;2022-07-29T05:31:15;100680.66;;;18.48;55.61
36664;BME280;53333;51.976;20.144;2022-07-29T05:33:49;100675.94;;;18.63;54.86
36664;BME280;53333;51.976;20.144;2022-07-29T05:36:23;100677.75;;;18.76;54.80
36664;BME280;53333;51.976;20.144;2022-07-29T05:39:10;100673.69;;;18.94;54.87
36664;BME280;53333;51.976;20.144;2022-07-29T05:41:45;100680.75;;;19.08;54.26
36664;BME280;53333;51.976;20.144;2022-07-29T05:44:23;100683.25;;;19.22;53.99
36664;BME280;53333;51.976;20.144;2022-07-29T05:46:59;100681.34;;;19.36;53.75
36664;BME280;53333;51.976;20.144;2022-07-29T05:49:33;100685.81;;;19.48;53.71
36664;BME280;53333;51.976;20.144;2022-07-29T05:52:07;100679.41;;;19.60;53.68
36664;BME280;53333;51.976;20.144;2022-07-29T05:54:44;100679.31;;;19.73;53.89
36664;BME280;53333;51.976;20.144;2022-07-29T05:57:19;100678.25;;;19.87;53.48
36664;BME280;53333;51.976;20.144;2022-07-29T05:59:54;100673.56;;;20.01;53.80
36664;BME280;53333;51.976;20.144;2022-07-29T06:02:28;100676.13;;;20.13;52.80
36664;BME280;53333;51.976;20.144;2022-07-29T06:05:03;100672.19;;;20.29;52.57
36664;BME280;53333;51.976;20.144;2022-07-29T06:07:41;100678.34;;;20.42;52.48
36664;BME280;53333;51.976;20.144;2022-07-29T06:10:24;100673.50;;;20.57;52.25
36664;BME280;53333;51.976;20.144;2022-07-29T06:12:58;100673.00;;;20.75;51.82
36664;BME280;53333;51.976;20.144;2022-07-29T06:15:31;100674.44;;;20.90;51.48
36664;BME280;53333;51.976;20.144;2022-07-29T06:18:05;100676.84;;;21.04;51.22
36664;BME280;53333;51.976;20.144;2022-07-29T06:20:42;100669.09;;;21.21;50.49
36664;BME280;53333;51.976;20.144;2022-07-29T06:23:15;100669.63;;;21.36;50.03
36664;BME280;53333;51.976;20.144;2022-07-29T06:25:50;100679.94;;;21.53;50.32
36664;BME280;53333;51.976;20.144;2022-07-29T06:28:26;100683.03;;;21.70;49.68
36664;BME280;53333;51.976;20.144;2022-07-29T06:31:00;100682.84;;;21.83;49.23
36664;BME280;53333;51.976;20.144;2022-07-29T06:33:37;100681.72;;;21.95;48.82
36664;BME280;53333;51.976;20.144;2022-07-29T06:36:12;100677.22;;;22.05;49.19
36664;BME280;53333;51.976;20.144;2022-07-29T06:38:47;100685.13;;;22.18;48.06
36664;BME280;53333;51.976;20.144;2022-07-29T06:41:24;100690.22;;;22.33;47.77
36664;BME280;53333;51.976;20.144;2022-07-29T06:43:59;100685.94;;;22.49;48.12
36664;BME280;53333;51.976;20.144;2022-07-29T06:46:33;100680.84;;;22.66;47.62
36664;BME280;53333;51.976;20.144;2022-07-29T06:49:07;100684.00;;;22.81;46.61
36664;BME280;53333;51.976;20.144;2022-07-29T06:51:42;100674.56;;;22.95;46.81
36664;BME280;53333;51.976;20.144;2022-07-29T06:54:15;100676.75;;;23.11;46.52
36664;BME280;53333;51.976;20.144;2022-07-29T06:56:51;100672.56;;;23.26;45.88
36664;BME280;53333;51.976;20.144;2022-07-29T06:59:24;100678.47;;;23.41;45.66
36664;BME280;53333;51.976;20.144;2022-07-29T07:02:06;100678.69;;;23.57;45.90
36664;BME280;53333;51.976;20.144;2022-07-29T07:04:40;100679.09;;;23.72;45.31
36664;BME280;53333;51.976;20.144;2022-07-29T07:07:14;100676.78;;;23.87;44.40
36664;BME280;53333;51.976;20.144;2022-07-29T07:09:49;100677.84;;;24.04;44.17
36664;BME280;53333;51.976;20.144;2022-07-29T07:12:24;100671.50;;;24.14;43.41
36664;BME280;53333;51.976;20.144;2022-07-29T07:14:57;100676.06;;;24.23;42.97
36664;BME280;53333;51.976;20.144;2022-07-29T07:17:31;100668.53;;;24.35;42.83
36664;BME280;53333;51.976;20.144;2022-07-29T07:20:05;100662.69;;;24.47;42.31
36664;BME280;53333;51.976;20.144;2022-07-29T07:22:39;100668.53;;;24.62;41.99
36664;BME280;53333;51.976;20.144;2022-07-29T07:25:15;100669.41;;;24.81;41.07
36664;BME280;53333;51.976;20.144;2022-07-29T07:27:50;100673.00;;;24.99;40.81
36664;BME280;53333;51.976;20.144;2022-07-29T07:30:24;100666.84;;;25.15;40.69
36664;BME280;53333;51.976;20.144;2022-07-29T07:33:00;100666.13;;;25.31;40.77
36664;BME280;53333;51.976;20.144;2022-07-29T07:35:34;100665.09;;;25.50;39.41
36664;BME280;53333;51.976;20.144;2022-07-29T07:38:07;100673.22;;;25.68;39.01
36664;BME280;53333;51.976;20.144;2022-07-29T07:40:41;100672.16;;;25.87;38.29
36664;BME280;53333;51.976;20.144;2022-07-29T07:43:16;100670.41;;;26.04;37.67
36664;BME280;53333;51.976;20.144;2022-07-29T07:45:50;100678.34;;;26.24;37.12
36664;BME280;53333;51.976;20.144;2022-07-29T07:48:25;100682.88;;;26.41;37.58
36664;BME280;53333;51.976;20.144;2022-07-29T07:50:58;100674.03;;;26.56;37.45
36664;BME280;53333;51.976;20.144;2022-07-29T07:53:32;100675.13;;;26.71;37.14
36664;BME280;53333;51.976;20.144;2022-07-29T07:56:06;100664.34;;;26.86;36.84
36664;BME280;53333;51.976;20.144;2022-07-29T07:58:44;100685.44;;;27.02;36.13
36664;BME280;53333;51.976;20.144;2022-07-29T08:01:18;100672.25;;;27.14;35.64
36664;BME280;53333;51.976;20.144;2022-07-29T08:03:55;100674.31;;;27.28;34.86
36664;BME280;53333;51.976;20.144;2022-07-29T08:06:28;100669.72;;;27.45;35.21
36664;BME280;53333;51.976;20.144;2022-07-29T08:09:02;100669.34;;;27.65;34.53
36664;BME280;53333;51.976;20.144;2022-07-29T08:11:57;100670.69;;;27.77;33.59
36664;BME280;53333;51.976;20.144;2022-07-29T08:14:32;100674.28;;;27.94;33.33
36664;BME280;53333;51.976;20.144;2022-07-29T08:17:06;100676.63;;;28.14;33.14
36664;BME280;53333;51.976;20.144;2022-07-29T08:19:40;100676.84;;;28.35;32.24
36664;BME280;53333;51.976;20.144;2022-07-29T08:22:13;100667.50;;;28.53;32.00
36664;BME280;53333;51.976;20.144;2022-07-29T08:24:47;100665.84;;;28.75;32.35
36664;BME280;53333;51.976;20.144;2022-07-29T08:27:26;100671.41;;;29.13;31.11
36664;BME280;53333;51.976;20.144;2022-07-29T08:30:19;100663.41;;;29.49;30.25
36664;BME280;53333;51.976;20.144;2022-07-29T08:32:55;100662.41;;;29.80;30.07
36664;BME280;53333;51.976;20.144;2022-07-29T08:35:33;100664.13;;;29.96;29.64
36664;BME280;53333;51.976;20.144;2022-07-29T08:38:07;100670.13;;;30.15;29.71
36664;BME280;53333;51.976;20.144;2022-07-29T08:40:42;100675.41;;;30.31;28.76
36664;BME280;53333;51.976;20.144;2022-07-29T08:43:15;100676.09;;;30.48;28.50
36664;BME280;53333;51.976;20.144;2022-07-29T08:45:51;100666.34;;;30.89;27.70
36664;BME280;53333;51.976;20.144;2022-07-29T08:48:25;100666.44;;;31.67;26.61
36664;BME280;53333;51.976;20.144;2022-07-29T08:50:59;100662.59;;;32.80;25.00
36664;BME280;53333;51.976;20.144;2022-07-29T08:53:35;100664.09;;;34.02;25.21
36664;BME280;53333;51.976;20.144;2022-07-29T08:56:12;100658.53;;;35.57;22.96
36664;BME280;53333;51.976;20.144;2022-07-29T08:58:47;100668.94;;;36.91;21.59
36664;BME280;53333;51.976;20.144;2022-07-29T09:01:27;100664.25;;;37.93;19.77
36664;BME280;53333;51.976;20.144;2022-07-29T09:04:13;100666.78;;;38.59;19.22
36664;BME280;53333;51.976;20.144;2022-07-29T09:06:51;100668.50;;;38.48;19.17
36664;BME280;53333;51.976;20.144;2022-07-29T09:09:25;100672.16;;;37.72;20.40
36664;BME280;53333;51.976;20.144;2022-07-29T09:11:59;100670.53;;;36.68;20.77
36664;BME280;53333;51.976;20.144;2022-07-29T09:14:33;100664.78;;;35.71;21.68
36664;BME280;53333;51.976;20.144;2022-07-29T09:17:08;100664.44;;;34.78;22.14
36664;BME280;53333;51.976;20.144;2022-07-29T09:19:42;100659.63;;;33.95;22.96
36664;BME280;53333;51.976;20.144;2022-07-29T09:22:28;100653.06;;;33.16;23.68
36664;BME280;53333;51.976;20.144;2022-07-29T09:25:13;100653.59;;;32.64;24.13
36664;BME280;53333;51.976;20.144;2022-07-29T09:27:49;100650.09;;;32.42;24.68
36664;BME280;53333;51.976;20.144;2022-07-29T09:30:24;100662.78;;;32.78;24.96
36664;BME280;53333;51.976;20.144;2022-07-29T09:33:04;100649.44;;;33.89;23.28
36664;BME280;53333;51.976;20.144;2022-07-29T09:35:38;100661.56;;;34.98;22.03
36664;BME280;53333;51.976;20.144;2022-07-29T09:38:27;100649.19;;;35.76;21.10
36664;BME280;53333;51.976;20.144;2022-07-29T09:41:03;100650.44;;;36.85;20.05
36664;BME280;53333;51.976;20.144;2022-07-29T09:43:38;100642.81;;;37.82;19.13
36664;BME280;53333;51.976;20.144;2022-07-29T09:46:13;100649.56;;;39.08;17.68
36664;BME280;53333;51.976;20.144;2022-07-29T09:49:05;100636.78;;;39.80;17.61
36664;BME280;53333;51.976;20.144;2022-07-29T09:51:39;100651.09;;;40.49;18.24
36664;BME280;53333;51.976;20.144;2022-07-29T09:54:22;100649.13;;;40.72;16.51
36664;BME280;53333;51.976;20.144;2022-07-29T09:56:57;100640.44;;;40.74;16.71
36664;BME280;53333;51.976;20.144;2022-07-29T09:59:31;100650.50;;;40.70;16.19
36664;BME280;53333;51.976;20.144;2022-07-29T10:02:11;100653.38;;;40.80;15.94
36664;BME280;53333;51.976;20.144;2022-07-29T10:04:54;100636.69;;;41.17;15.87
36664;BME280;53333;51.976;20.144;2022-07-29T10:07:44;100640.22;;;41.35;15.19
36664;BME280;53333;51.976;20.144;2022-07-29T10:10:25;100635.06;;;41.27;15.38
36664;BME280;53333;51.976;20.144;2022-07-29T10:13:01;100638.34;;;40.86;15.36
36664;BME280;53333;51.976;20.144;2022-07-29T10:15:42;100625.91;;;40.27;16.83
36664;BME280;53333;51.976;20.144;2022-07-29T10:18:17;100636.59;;;39.69;16.46
36664;BME280;53333;51.976;20.144;2022-07-29T10:20:53;100630.34;;;38.94;16.51
36664;BME280;53333;51.976;20.144;2022-07-29T10:23:29;100626.84;;;38.29;17.98
36664;BME280;53333;51.976;20.144;2022-07-29T10:26:19;100609.88;;;37.43;18.30
36664;BME280;53333;51.976;20.144;2022-07-29T10:28:53;100611.59;;;36.60;18.88
36664;BME280;53333;51.976;20.144;2022-07-29T10:31:31;100613.53;;;36.10;19.49
36664;BME280;53333;51.976;20.144;2022-07-29T10:34:16;100608.94;;;35.86;20.17
36664;BME280;53333;51.976;20.144;2022-07-29T10:37:02;100615.16;;;35.81;20.08
36664;BME280;53333;51.976;20.144;2022-07-29T10:39:44;100606.72;;;35.69;21.24
36664;BME280;53333;51.976;20.144;2022-07-29T10:42:24;100598.84;;;35.47;20.90
36664;BME280;53333;51.976;20.144;2022-07-29T10:45:06;100606.31;;;35.22;20.56
36664;BME280;53333;51.976;20.144;2022-07-29T10:47:40;100595.81;;;34.99;20.92
36664;BME280;53333;51.976;20.144;2022-07-29T10:50:14;100607.75;;;34.74;21.34
36664;BME280;53333;51.976;20.144;2022-07-29T10:52:56;100597.13;;;34.64;21.01
36664;BME280;53333;51.976;20.144;2022-07-29T10:55:37;100591.47;;;34.46;21.65
36664;BME280;53333;51.976;20.144;2022-07-29T10:58:17;100594.25;;;34.46;21.92
36664;BME280;53333;51.976;20.144;2022-07-29T11:00:53;100593.97;;;34.54;21.59
36664;BME280;53333;51.976;20.144;2022-07-29T11:03:46;100584.88;;;34.72;21.83
36664;BME280;53333;51.976;20.144;2022-07-29T11:07:06;100594.22;;;34.84;21.20
36664;BME280;53333;51.976;20.144;2022-07-29T11:09:44;100584.69;;;34.80;21.71
36664;BME280;53333;51.976;20.144;2022-07-29T11:12:50;100597.69;;;34.73;21.01
36664;BME280;53333;51.976;20.144;2022-07-29T11:15:25;100589.09;;;34.49;21.11
36664;BME280;53333;51.976;20.144;2022-07-29T11:18:18;100589.00;;;34.31;21.59
36664;BME280;53333;51.976;20.144;2022-07-29T11:20:54;100584.56;;;34.16;21.77
36664;BME280;53333;51.976;20.144;2022-07-29T11:23:31;100585.69;;;34.02;22.18
36664;BME280;53333;51.976;20.144;2022-07-29T11:26:27;100575.13;;;33.79;22.51
36664;BME280;53333;51.976;20.144;2022-07-29T11:29:08;100568.50;;;33.66;22.15
36664;BME280;53333;51.976;20.144;2022-07-29T11:31:49;100566.84;;;33.52;22.50
36664;BME280;53333;51.976;20.144;2022-07-29T11:34:28;100574.53;;;33.50;22.80
36664;BME280;53333;51.976;20.144;2022-07-29T11:37:17;100566.00;;;33.58;22.69
36664;BME280;53333;51.976;20.144;2022-07-29T11:40:14;100572.81;;;33.62;23.06
36664;BME280;53333;51.976;20.144;2022-07-29T11:42:51;100566.22;;;33.70;22.30
36664;BME280;53333;51.976;20.144;2022-07-29T11:45:26;100570.22;;;33.74;22.15
36664;BME280;53333;51.976;20.144;2022-07-29T11:48:18;100564.47;;;33.69;21.95
36664;BME280;53333;51.976;20.144;2022-07-29T11:51:12;100569.84;;;33.44;22.16
36664;BME280;53333;51.976;20.144;2022-07-29T11:53:47;100575.19;;;33.12;22.38
36664;BME280;53333;51.976;20.144;2022-07-29T11:56:25;100564.78;;;32.87;23.61
36664;BME280;53333;51.976;20.144;2022-07-29T11:59:07;100569.00;;;32.63;23.13
36664;BME280;53333;51.976;20.144;2022-07-29T12:01:52;100566.38;;;32.48;23.98
36664;BME280;53333;51.976;20.144;2022-07-29T12:04:54;100560.22;;;32.46;23.79
36664;BME280;53333;51.976;20.144;2022-07-29T12:07:28;100571.06;;;32.41;23.62
36664;BME280;53333;51.976;20.144;2022-07-29T12:10:06;100554.66;;;32.33;24.02
36664;BME280;53333;51.976;20.144;2022-07-29T12:13:01;100550.81;;;32.34;23.96
36664;BME280;53333;51.976;20.144;2022-07-29T12:15:37;100549.78;;;32.35;23.70
36664;BME280;53333;51.976;20.144;2022-07-29T12:18:21;100557.84;;;32.30;23.42
36664;BME280;53333;51.976;20.144;2022-07-29T12:21:01;100554.00;;;32.24;23.67
36664;BME280;53333;51.976;20.144;2022-07-29T12:23:36;100551.78;;;32.06;23.63
36664;BME280;53333;51.976;20.144;2022-07-29T12:26:10;100554.91;;;31.90;23.64
36664;BME280;53333;51.976;20.144;2022-07-29T12:28:56;100554.81;;;31.69;24.25
36664;BME280;53333;51.976;20.144;2022-07-29T12:31:34;100543.06;;;31.61;24.37
36664;BME280;53333;51.976;20.144;2022-07-29T12:34:16;100539.44;;;31.54;24.46
36664;BME280;53333;51.976;20.144;2022-07-29T12:36:50;100551.25;;;31.47;24.91
36664;BME280;53333;51.976;20.144;2022-07-29T12:39:24;100546.94;;;31.38;25.15
36664;BME280;53333;51.976;20.144;2022-07-29T12:42:02;100543.72;;;31.28;25.08
36664;BME280;53333;51.976;20.144;2022-07-29T12:44:47;100537.03;;;31.15;25.15
36664;BME280;53333;51.976;20.144;2022-07-29T12:47:23;100535.75;;;31.11;25.24
36664;BME280;53333;51.976;20.144;2022-07-29T12:50:10;100532.31;;;31.09;25.48
36664;BME280;53333;51.976;20.144;2022-07-29T12:52:45;100529.00;;;30.92;25.36
36664;BME280;53333;51.976;20.144;2022-07-29T12:55:41;100527.22;;;30.85;25.72
36664;BME280;53333;51.976;20.144;2022-07-29T12:58:26;100534.56;;;30.77;25.42
36664;BME280;53333;51.976;20.144;2022-07-29T13:01:05;100525.75;;;30.60;25.56
36664;BME280;53333;51.976;20.144;2022-07-29T13:03:52;100520.56;;;30.51;25.85
36664;BME280;53333;51.976;20.144;2022-07-29T13:06:33;100520.28;;;30.46;26.33
36664;BME280;53333;51.976;20.144;2022-07-29T13:09:10;100519.63;;;30.43;26.11
36664;BME280;53333;51.976;20.144;2022-07-29T13:11:45;100521.41;;;30.51;26.68
36664;BME280;53333;51.976;20.144;2022-07-29T13:14:30;100525.56;;;30.62;26.38
36664;BME280;53333;51.976;20.144;2022-07-29T13:17:11;100521.53;;;30.65;26.04
36664;BME280;53333;51.976;20.144;2022-07-29T13:19:49;100514.13;;;30.65;26.88
36664;BME280;53333;51.976;20.144;2022-07-29T13:22:25;100518.25;;;30.54;26.21
36664;BME280;53333;51.976;20.144;2022-07-29T13:25:04;100512.41;;;30.42;26.22
36664;BME280;53333;51.976;20.144;2022-07-29T13:27:39;100512.50;;;30.34;26.49
36664;BME280;53333;51.976;20.144;2022-07-29T13:30:13;100497.97;;;30.19;26.65
36664;BME280;53333;51.976;20.144;2022-07-29T13:32:46;100507.19;;;30.11;26.78
36664;BME280;53333;51.976;20.144;2022-07-29T13:35:25;100493.75;;;30.01;26.81